Rechercher aéroport 
image banner adimage banner adimage banner ad
image banner ad

N16 - Centre Airpark

Situé à Centre Hall, United States

ICAO - N16, IATA -

Données fournies par Airmate  

Information générale

Coordonnées: N40°48'42" W77°39'26"
Élévation : 1307 feet MSL.
Variation magnétique : -10° East
Voir autres Aéroports à Pennsylvania

Données opérationnelles

Special qualification required
Heure actuelle UTC:
Heure actuelle locale:
Météo à : KRVL - Mifflin County ( 15 km )
METAR: KRVL 150735Z AUTO 00000KT 6SM BR FEW001 13/13 A2982 RMK AO2
Voir NOTAMs / SUP AIP / TFR affectant cet aéroport [VIEW]
Fréquences de communication: [VIEW]

Pistes:

Identifiant RWYQFULongueur (ft)Largeur (ft)SurfaceLDA (ft)
063100210GRASS
243100210GRASS

Coordonnées de l'aéroport

Adresse: Centre Hall United States

Vue satellite de N16